Temp: 8.9°C   Baro: 1006.6mb
  Wind: 6.0mph   Dir: N (352°)
  Rain: 0.0mm (0.0mm/hr)
  Solar: 0W/m2  Hum: 85%
 
Bath Spa Weather Station Historical Data
Daily Summary for October 11, 2019 Units:  Metric    English   Both
Daily Weekly Monthly Yearly Custom
  High: Low: Average:
Temperature: 15.7 °C 10.5 °C 13.6 °C
Dew Point: 14 °C 9.4 °C 12.2 °C
Humidity: 94% 88% 92%
Wind Speed: 20km/h 0km/h 9km/h
Wind Gust: 38.6km/h - -
Wind- - WSW
Pressure: 1008.7 hPa 1002.6 hPa -
Precipitation: 16.51 mm    
Historical Graphs
 
 
Tabular Data for October 11, 2019
Time Temperature Dew Point Pressure Wind Wind Speed Wind Gust Humidity Rainfall Rate (Hourly) solar
00:04 14.3 °C 12.8 °C 1008.7 hPa SW 10 km/h 19.3 km/h 90.7% 0.76 mm 0 W/m2
00:09 14.3 °C 12.9 °C 1008.4 hPa SW 7.7 km/h 16.1 km/h 91% 0.51 mm 0 W/m2
00:14 14.3 °C 12.8 °C 1008.4 hPa SW 8.9 km/h 19.3 km/h 90.6% 0.51 mm 0 W/m2
00:19 14.4 °C 12.8 °C 1008.4 hPa SW 13.8 km/h 20.9 km/h 90% 0.51 mm 0 W/m2
00:24 14.6 °C 12.9 °C 1008.4 hPa SW 9.5 km/h 20.9 km/h 90% 0.51 mm 0 W/m2
00:29 14.7 °C 13 °C 1008.4 hPa SW 10.9 km/h 19.3 km/h 89.9% 0.51 mm 0 W/m2
00:34 14.7 °C 12.9 °C 1008.7 hPa WSW 11.4 km/h 22.5 km/h 89% 0.76 mm 0 W/m2
00:39 14.5 °C 12.7 °C 1008.7 hPa West 8.7 km/h 19.3 km/h 89.1% 1.02 mm 0 W/m2
00:44 14.3 °C 12.7 °C 1008.7 hPa WSW 8.2 km/h 19.3 km/h 89.9% 1.27 mm 0 W/m2
00:49 14.3 °C 12.7 °C 1008.4 hPa WSW 11.4 km/h 19.3 km/h 90% 1.27 mm 0 W/m2
00:54 14.3 °C 12.8 °C 1008.4 hPa WSW 5.6 km/h 19.3 km/h 90.3% 1.27 mm 0 W/m2
00:59 14.3 °C 12.9 °C 1008.4 hPa SW 8 km/h 19.3 km/h 91% 1.27 mm 0 W/m2
01:04 14.3 °C 12.9 °C 1008.4 hPa SW 8.5 km/h 16.1 km/h 91% 1.02 mm 0 W/m2
01:09 14.3 °C 12.9 °C 1008.4 hPa SW 8.4 km/h 19.3 km/h 91% 1.27 mm 0 W/m2
01:14 14.2 °C 12.8 °C 1008.4 hPa SW 8.5 km/h 19.3 km/h 91% 1.27 mm 0 W/m2
01:19 14.2 °C 12.8 °C 1008.4 hPa SW 15.8 km/h 25.7 km/h 91% 1.52 mm 0 W/m2
01:24 14.2 °C 12.8 °C 1008.4 hPa SW 10 km/h 24.1 km/h 91% 1.52 mm 0 W/m2
01:29 14.2 °C 12.8 °C 1008.4 hPa SW 12.2 km/h 24.1 km/h 91% 1.52 mm 0 W/m2
01:34 14.2 °C 12.8 °C 1008.4 hPa SW 9.7 km/h 24.1 km/h 91% 1.78 mm 0 W/m2
01:39 14.2 °C 12.8 °C 1008.4 hPa SW 8.5 km/h 19.3 km/h 91% 1.52 mm 0 W/m2
01:44 14.2 °C 12.8 °C 1008.4 hPa SW 11.3 km/h 22.5 km/h 91% 1.52 mm 0 W/m2
01:49 14.2 °C 12.8 °C 1008.4 hPa SW 10.3 km/h 20.9 km/h 91% 1.52 mm 0 W/m2
01:54 14.2 °C 12.8 °C 1008.4 hPa SW 13 km/h 25.7 km/h 91% 1.52 mm 0 W/m2
01:59 14.2 °C 12.8 °C 1008.4 hPa SW 11.9 km/h 24.1 km/h 91% 1.52 mm 0 W/m2
02:04 14.2 °C 12.8 °C 1008.4 hPa WSW 13.2 km/h 25.7 km/h 91% 1.78 mm 0 W/m2
02:09 14.2 °C 12.8 °C 1008.4 hPa SW 9.3 km/h 22.5 km/h 91% 1.78 mm 0 W/m2
02:14 14.1 °C 12.7 °C 1008 hPa SW 10.5 km/h 25.7 km/h 91.1% 1.78 mm 0 W/m2
02:19 14.1 °C 12.8 °C 1008 hPa SW 13.7 km/h 25.7 km/h 92% 1.78 mm 0 W/m2
02:24 14.1 °C 12.7 °C 1008 hPa SW 12.4 km/h 27.4 km/h 91.4% 1.78 mm 0 W/m2
02:29 14.1 °C 12.7 °C 1008 hPa SW 11.3 km/h 27.4 km/h 91.2% 1.52 mm 0 W/m2
02:34 14 °C 12.7 °C 1008 hPa SW 6.9 km/h 16.1 km/h 92% 1.52 mm 0 W/m2
02:39 14 °C 12.7 °C 1008 hPa SW 13.4 km/h 25.7 km/h 92% 1.52 mm 0 W/m2
02:44 14 °C 12.7 °C 1008 hPa SW 14 km/h 29 km/h 92% 1.52 mm 0 W/m2
02:49 14 °C 12.7 °C 1008 hPa SW 10.3 km/h 22.5 km/h 92% 1.27 mm 0 W/m2
02:54 14 °C 12.7 °C 1008 hPa WSW 9.7 km/h 22.5 km/h 92% 1.78 mm 0 W/m2
02:59 13.9 °C 12.6 °C 1007.7 hPa SW 10.6 km/h 20.9 km/h 92% 1.78 mm 0 W/m2
03:04 13.9 °C 12.6 °C 1007.7 hPa SW 9 km/h 20.9 km/h 92% 1.78 mm 0 W/m2
03:09 13.9 °C 12.6 °C 1007.7 hPa SW 8.2 km/h 19.3 km/h 92% 1.78 mm 0 W/m2
03:14 13.8 °C 12.6 °C 1007.3 hPa SW 10.1 km/h 24.1 km/h 92% 1.78 mm 0 W/m2
03:19 13.8 °C 12.5 °C 1007.3 hPa SW 6 km/h 24.1 km/h 92% 1.78 mm 0 W/m2
03:24 13.8 °C 12.6 °C 1007.3 hPa SW 10.1 km/h 19.3 km/h 92% 1.78 mm 0 W/m2
03:29 13.8 °C 12.6 °C 1007.3 hPa SW 9.5 km/h 19.3 km/h 92% 2.29 mm 0 W/m2
03:34 13.8 °C 12.7 °C 1007.3 hPa SW 7.1 km/h 19.3 km/h 92.7% 2.54 mm 0 W/m2
03:39 13.8 °C 12.7 °C 1007 hPa SSW 5.8 km/h 17.7 km/h 93% 3.05 mm 0 W/m2
03:44 13.8 °C 12.7 °C 1007 hPa SW 7.7 km/h 14.5 km/h 93% 3.05 mm 0 W/m2
03:49 13.8 °C 12.7 °C 1007 hPa WSW 12.9 km/h 27.4 km/h 93% 3.3 mm 0 W/m2
03:54 13.8 °C 12.7 °C 1007.3 hPa West 12.2 km/h 27.4 km/h 93% 3.05 mm 0 W/m2
03:59 13.8 °C 12.7 °C 1007.3 hPa West 10.5 km/h 24.1 km/h 93% 2.29 mm 0 W/m2
04:04 13.8 °C 12.7 °C 1007 hPa WSW 9.3 km/h 24.1 km/h 93% 2.79 mm 0 W/m2
04:09 13.8 °C 12.7 °C 1007 hPa WSW 9.2 km/h 19.3 km/h 93% 3.05 mm 0 W/m2
04:14 13.8 °C 12.7 °C 1007 hPa SW 9.8 km/h 19.3 km/h 93% 3.05 mm 0 W/m2
04:19 13.8 °C 12.7 °C 1007 hPa SW 11.1 km/h 22.5 km/h 93% 3.05 mm 0 W/m2
04:24 13.8 °C 12.7 °C 1006.7 hPa SW 8 km/h 22.5 km/h 93% 3.3 mm 0 W/m2
04:29 13.8 °C 12.7 °C 1006.7 hPa WSW 12.6 km/h 20.9 km/h 93% 3.3 mm 0 W/m2
04:34 13.8 °C 12.7 °C 1006.7 hPa SW 10.3 km/h 20.9 km/h 93% 3.05 mm 0 W/m2
04:39 13.8 °C 12.8 °C 1006.3 hPa SW 5.5 km/h 20.9 km/h 93% 2.29 mm 0 W/m2
04:44 13.8 °C 12.7 °C 1006.3 hPa SW 9.7 km/h 19.3 km/h 93% 2.03 mm 0 W/m2
04:49 13.9 °C 12.8 °C 1006.3 hPa SW 10.6 km/h 22.5 km/h 93% 2.03 mm 0 W/m2
04:54 13.9 °C 12.8 °C 1006.3 hPa SW 13.5 km/h 22.5 km/h 93% 2.03 mm 0 W/m2
04:59 13.9 °C 12.8 °C 1006.3 hPa SW 10.9 km/h 22.5 km/h 93% 2.03 mm 0 W/m2
05:04 14 °C 12.9 °C 1006 hPa SW 12.2 km/h 25.7 km/h 93% 1.78 mm 0 W/m2
05:09 14 °C 12.9 °C 1006 hPa SW 12.9 km/h 22.5 km/h 93% 1.27 mm 0 W/m2
05:14 14 °C 12.8 °C 1006 hPa SW 9.8 km/h 20.9 km/h 92.8% 1.02 mm 0 W/m2
05:19 14 °C 12.7 °C 1005.6 hPa SW 10.3 km/h 20.9 km/h 92.1% 1.02 mm 0 W/m2
05:24 14 °C 12.7 °C 1005.6 hPa SW 13.5 km/h 25.7 km/h 92% 0.51 mm 0 W/m2
05:29 14 °C 12.7 °C 1005.6 hPa SW 12.6 km/h 25.7 km/h 92% 0.51 mm 0 W/m2
05:34 14 °C 12.7 °C 1005.6 hPa SW 13.7 km/h 22.5 km/h 92% 0.51 mm 0 W/m2
05:39 14 °C 12.7 °C 1005.6 hPa SW 11.6 km/h 22.5 km/h 92% 0.51 mm 0 W/m2
05:44 14 °C 12.7 °C 1005.6 hPa SW 9 km/h 20.9 km/h 92% 0.51 mm 0 W/m2
05:49 14 °C 12.7 °C 1005.6 hPa SW 13.8 km/h 32.2 km/h 92% 0.51 mm 0 W/m2
05:54 14.1 °C 12.8 °C 1005.6 hPa SW 12.7 km/h 30.6 km/h 92% 0.51 mm 0 W/m2
05:59 14.1 °C 12.8 °C 1005.6 hPa SW 12.1 km/h 22.5 km/h 92% 0.51 mm 0 W/m2
06:04 14.1 °C 12.8 °C 1005.6 hPa SW 9.8 km/h 22.5 km/h 92% 0.51 mm 0 W/m2
06:09 14.1 °C 12.8 °C 1005.6 hPa SW 15.3 km/h 27.4 km/h 92% 0.51 mm 0 W/m2
06:14 14.2 °C 12.8 °C 1005.6 hPa SW 12.7 km/h 24.1 km/h 92% 0.51 mm 0 W/m2
06:19 14.2 °C 12.8 °C 1005.3 hPa SW 10 km/h 19.3 km/h 92% 0.76 mm 0 W/m2
06:24 14.2 °C 12.8 °C 1005.6 hPa SW 14.6 km/h 25.7 km/h 92% 0.76 mm 0 W/m2
06:29 14.2 °C 12.8 °C 1005.6 hPa SW 14.3 km/h 25.7 km/h 92% 0.76 mm 0 W/m2
06:34 14.2 °C 12.8 °C 1005.3 hPa SW 11.4 km/h 29 km/h 92% 0.51 mm 0 W/m2
06:39 14.1 °C 12.8 °C 1005.3 hPa SW 10.8 km/h 29 km/h 92% 0.51 mm 0 W/m2
06:44 14.1 °C 12.8 °C 1005.6 hPa WSW 9.7 km/h 27.4 km/h 92% 0.51 mm 0 W/m2
06:49 14.1 °C 12.8 °C 1005.6 hPa WSW 12.4 km/h 27.4 km/h 92% 0.51 mm 0 W/m2
06:54 14.1 °C 12.8 °C 1005.6 hPa SW 16.4 km/h 30.6 km/h 92% 0.51 mm 0 W/m2
06:59 14.1 °C 12.7 °C 1005.6 hPa SW 15.1 km/h 30.6 km/h 91.4% 0.51 mm 0 W/m2
07:04 14.1 °C 12.7 °C 1005.6 hPa WSW 13.8 km/h 24.1 km/h 91% 0.25 mm 0 W/m2
07:09 14 °C 12.6 °C 1005.3 hPa SW 13.2 km/h 27.4 km/h 91% 0.25 mm 0 W/m2
07:14 14.1 °C 12.7 °C 1005.3 hPa SW 15.6 km/h 27.4 km/h 91% 0.25 mm 0 W/m2
07:19 14.2 °C 12.6 °C 1005.3 hPa SW 18.2 km/h 32.2 km/h 90.1% 0.25 mm 0 W/m2
07:24 14.2 °C 12.6 °C 1005.6 hPa WSW 16.4 km/h 35.4 km/h 90% 0 mm 0 W/m2
07:29 14.1 °C 12.5 °C 1005.6 hPa WSW 16.3 km/h 33.8 km/h 90% 0 mm 0 W/m2
07:34 14.1 °C 12.3 °C 1005.3 hPa WSW 13.5 km/h 33.8 km/h 89.1% 0 mm 0 W/m2
07:39 14 °C 12.2 °C 1005.3 hPa SW 12.4 km/h 27.4 km/h 89% 0 mm 0 W/m2
07:44 13.9 °C 12.1 °C 1005.3 hPa WSW 15.8 km/h 30.6 km/h 89% 0 mm 0 W/m2
07:49 13.8 °C 11.9 °C 1005.3 hPa SW 11.3 km/h 22.5 km/h 88.3% 0 mm 5 W/m2
07:54 13.8 °C 11.8 °C 1005.3 hPa SW 12.6 km/h 25.7 km/h 88% 0 mm 5 W/m2
07:59 13.8 °C 11.8 °C 1005.3 hPa WSW 10 km/h 25.7 km/h 88% 0 mm 7 W/m2
08:04 13.7 °C 11.7 °C 1005.3 hPa WSW 7.6 km/h 16.1 km/h 88% 0 mm 9 W/m2
08:09 13.7 °C 11.7 °C 1005.6 hPa WSW 11.6 km/h 22.5 km/h 88% 0 mm 12 W/m2
08:14 13.5 °C 11.7 °C 1005.3 hPa WSW 9.8 km/h 20.9 km/h 88.7% 0 mm 14 W/m2
08:19 13.5 °C 11.7 °C 1005.3 hPa WSW 6.8 km/h 20.9 km/h 89% 0 mm 21 W/m2
08:24 13.5 °C 11.7 °C 1005.3 hPa West 7.9 km/h 20.9 km/h 89% 0 mm 25 W/m2
08:29 13.5 °C 11.7 °C 1005.6 hPa WSW 7.2 km/h 17.7 km/h 89% 0 mm 26 W/m2
08:34 13.5 °C 11.7 °C 1005.6 hPa WSW 14 km/h 29 km/h 89% 0 mm 32 W/m2
08:39 13.6 °C 11.8 °C 1005.3 hPa WSW 8.5 km/h 24.1 km/h 89% 0 mm 32 W/m2
08:44 13.7 °C 11.7 °C 1005.3 hPa WSW 9 km/h 22.5 km/h 88.3% 0 mm 32 W/m2
08:49 13.7 °C 11.7 °C 1005.3 hPa WSW 3.7 km/h 11.3 km/h 88% 0 mm 51 W/m2
08:54 13.6 °C 11.6 °C 1005.3 hPa SW 9.7 km/h 24.1 km/h 88% 0 mm 56 W/m2
08:59 13.7 °C 11.7 °C 1005.3 hPa WSW 3.2 km/h 24.1 km/h 88% 0 mm 56 W/m2
09:04 13.7 °C 11.7 °C 1005.3 hPa West 4.5 km/h 12.9 km/h 88% 0 mm 62 W/m2
09:09 13.7 °C 11.8 °C 1005 hPa WSW 4.5 km/h 16.1 km/h 88.6% 0 mm 51 W/m2
09:14 13.7 °C 11.9 °C 1005 hPa SW 5.3 km/h 16.1 km/h 89% 0 mm 62 W/m2
09:19 13.7 °C 11.9 °C 1005 hPa SW 8.9 km/h 22.5 km/h 89% 0 mm 60 W/m2
09:24 13.7 °C 11.9 °C 1005 hPa West 6.6 km/h 14.5 km/h 89% 0 mm 53 W/m2
09:29 13.7 °C 11.9 °C 1005.3 hPa West 7.6 km/h 16.1 km/h 89% 0 mm 47 W/m2
09:34 13.8 °C 12 °C 1005 hPa WSW 8.4 km/h 17.7 km/h 89% 0 mm 49 W/m2
09:39 13.8 °C 12.1 °C 1005 hPa SW 13.2 km/h 24.1 km/h 89% 0 mm 44 W/m2
09:44 13.9 °C 12.1 °C 1005 hPa WSW 7.7 km/h 19.3 km/h 89% 0 mm 44 W/m2
09:49 14 °C 12.2 °C 1005 hPa SW 11.6 km/h 22.5 km/h 89% 0 mm 56 W/m2
09:54 14.1 °C 12.2 °C 1005 hPa SW 17.5 km/h 35.4 km/h 88.5% 0 mm 60 W/m2
09:59 14.2 °C 12.2 °C 1005 hPa SW 12.4 km/h 32.2 km/h 88% 0 mm 63 W/m2
10:04 14.2 °C 12.2 °C 1005 hPa SW 12.4 km/h 20.9 km/h 88% 0 mm 88 W/m2
10:09 14.3 °C 12.3 °C 1005 hPa SW 15 km/h 32.2 km/h 88% 0 mm 100 W/m2
10:14 14.3 °C 12.3 °C 1005 hPa SW 14 km/h 29 km/h 88% 0 mm 102 W/m2
10:19 14.3 °C 12.3 °C 1005 hPa SW 13.5 km/h 27.4 km/h 88% 0 mm 128 W/m2
10:24 14.4 °C 12.4 °C 1005 hPa SW 17.7 km/h 33.8 km/h 88% 0.25 mm 139 W/m2
10:29 14.4 °C 12.4 °C 1005 hPa SW 16.9 km/h 33.8 km/h 88% 0.25 mm 135 W/m2
10:34 14.4 °C 12.4 °C 1005 hPa SW 11.9 km/h 30.6 km/h 88% 0.25 mm 174 W/m2
10:39 14.4 °C 12.5 °C 1005 hPa WSW 16.7 km/h 29 km/h 88.3% 0.25 mm 174 W/m2
10:44 14.5 °C 12.7 °C 1005 hPa SW 13.7 km/h 29 km/h 89% 0.25 mm 144 W/m2
10:49 14.4 °C 12.7 °C 1005 hPa WSW 14 km/h 24.1 km/h 89% 0.25 mm 65 W/m2
10:54 14.4 °C 12.6 °C 1005.3 hPa WSW 12.2 km/h 25.7 km/h 89% 0.25 mm 51 W/m2
10:59 14.3 °C 12.6 °C 1005 hPa WSW 9.2 km/h 19.3 km/h 89% 0.25 mm 84 W/m2
11:04 14.3 °C 12.6 °C 1005 hPa SW 7.6 km/h 17.7 km/h 89.1% 0.25 mm 95 W/m2
11:09 14.3 °C 12.7 °C 1005 hPa SW 6.4 km/h 14.5 km/h 90% 0.25 mm 125 W/m2
11:14 14.3 °C 12.7 °C 1004.6 hPa SW 6.8 km/h 14.5 km/h 90% 0.25 mm 153 W/m2
11:19 14.3 °C 12.9 °C 1005 hPa SW 10.9 km/h 22.5 km/h 90.9% 0.25 mm 151 W/m2
11:24 14.4 °C 12.9 °C 1004.6 hPa SW 8.7 km/h 17.7 km/h 91% 0 mm 86 W/m2
11:29 14.4 °C 12.9 °C 1004.6 hPa SW 5 km/h 16.1 km/h 91% 0 mm 95 W/m2
11:34 14.5 °C 13 °C 1004.6 hPa WSW 8.4 km/h 19.3 km/h 91% 0 mm 100 W/m2
11:39 14.5 °C 12.9 °C 1004.6 hPa SW 10.5 km/h 20.9 km/h 90.5% 0 mm 100 W/m2
11:44 14.6 °C 13 °C 1004.6 hPa WSW 9 km/h 19.3 km/h 90% 0 mm 91 W/m2
11:49 14.7 °C 13.1 °C 1004.6 hPa WSW 11.4 km/h 22.5 km/h 90% 0 mm 81 W/m2
11:54 14.7 °C 12.9 °C 1004.6 hPa SW 14.2 km/h 30.6 km/h 89.1% 0 mm 53 W/m2
11:59 14.8 °C 13 °C 1004.6 hPa SW 12.4 km/h 25.7 km/h 88.9% 0 mm 63 W/m2
12:04 14.8 °C 12.8 °C 1004.3 hPa SW 10.8 km/h 19.3 km/h 88% 0 mm 84 W/m2
12:09 14.8 °C 12.8 °C 1004.3 hPa SW 15.8 km/h 33.8 km/h 88% 0 mm 83 W/m2
12:14 14.9 °C 12.9 °C 1004.3 hPa SW 13.7 km/h 25.7 km/h 88% 0 mm 84 W/m2
12:19 14.9 °C 12.9 °C 1003.9 hPa SW 12.1 km/h 20.9 km/h 88% 0 mm 76 W/m2
12:24 15 °C 13 °C 1004.3 hPa SW 11.3 km/h 25.7 km/h 88% 0 mm 69 W/m2
12:29 15.1 °C 13.1 °C 1003.9 hPa SW 18.8 km/h 32.2 km/h 88% 0 mm 88 W/m2
12:34 15.2 °C 13.2 °C 1003.9 hPa SW 14.6 km/h 25.7 km/h 88% 0 mm 90 W/m2
12:39 15.2 °C 13.2 °C 1003.9 hPa SW 15.8 km/h 30.6 km/h 88% 0 mm 134 W/m2
12:44 15.2 °C 13.2 °C 1003.9 hPa SW 14.6 km/h 30.6 km/h 88% 0 mm 125 W/m2
12:49 15.2 °C 13.2 °C 1003.9 hPa SW 12.1 km/h 30.6 km/h 88% 0 mm 107 W/m2
12:54 15.1 °C 13.3 °C 1003.6 hPa SW 13.7 km/h 32.2 km/h 89% 0 mm 109 W/m2
12:59 15.2 °C 13.4 °C 1003.6 hPa SW 11.7 km/h 27.4 km/h 89% 0 mm 121 W/m2
13:04 15.3 °C 13.4 °C 1003.6 hPa SW 15 km/h 27.4 km/h 89% 0 mm 93 W/m2
13:09 15.3 °C 13.5 °C 1003.6 hPa SW 19.8 km/h 38.6 km/h 89% 0 mm 98 W/m2
13:14 15.3 °C 13.5 °C 1003.6 hPa SW 13.7 km/h 38.6 km/h 89% 0 mm 127 W/m2
13:19 15.3 °C 13.4 °C 1003.6 hPa SW 14.3 km/h 35.4 km/h 89% 0.25 mm 135 W/m2
13:24 15.2 °C 13.4 °C 1003.6 hPa SW 15 km/h 29 km/h 89% 0.25 mm 111 W/m2
13:29 15.1 °C 13.4 °C 1003.6 hPa SW 13.7 km/h 35.4 km/h 90% 0.51 mm 105 W/m2
13:34 15 °C 13.4 °C 1003.6 hPa SW 15.3 km/h 24.1 km/h 90% 0.51 mm 111 W/m2
13:39 15 °C 13.4 °C 1003.3 hPa SW 17.5 km/h 35.4 km/h 90.6% 0.51 mm 151 W/m2
13:44 15 °C 13.5 °C 1003.6 hPa SW 16.4 km/h 35.4 km/h 91% 0.51 mm 134 W/m2
13:49 15 °C 13.5 °C 1003.6 hPa SW 20 km/h 37 km/h 91% 0.51 mm 118 W/m2
13:54 15 °C 13.5 °C 1003.3 hPa SW 11.3 km/h 37 km/h 91% 0.51 mm 141 W/m2
13:59 15 °C 13.5 °C 1003.6 hPa SW 16.4 km/h 37 km/h 91% 0.76 mm 114 W/m2
14:04 14.9 °C 13.4 °C 1003.6 hPa WSW 14.6 km/h 37 km/h 91% 1.02 mm 97 W/m2
14:09 14.9 °C 13.5 °C 1003.6 hPa SW 13 km/h 30.6 km/h 91.6% 1.52 mm 91 W/m2
14:14 14.9 °C 13.6 °C 1003.3 hPa SW 16.1 km/h 29 km/h 92% 1.52 mm 190 W/m2
14:19 14.9 °C 13.7 °C 1003.3 hPa WSW 18 km/h 32.2 km/h 92% 1.52 mm 188 W/m2
14:24 15.1 °C 13.8 °C 1003.3 hPa SW 13.5 km/h 32.2 km/h 92% 1.52 mm 223 W/m2
14:29 15.2 °C 13.8 °C 1003.3 hPa SW 11.9 km/h 30.6 km/h 91.8% 1.52 mm 165 W/m2
14:34 15.2 °C 13.8 °C 1003.3 hPa SW 13 km/h 30.6 km/h 91.5% 1.27 mm 181 W/m2
14:39 15.3 °C 13.8 °C 1002.9 hPa SW 19.8 km/h 32.2 km/h 91% 1.27 mm 243 W/m2
14:44 15.4 °C 13.9 °C 1003.3 hPa SW 17.2 km/h 33.8 km/h 91% 1.02 mm 209 W/m2
14:49 15.4 °C 13.9 °C 1003.3 hPa SW 17.1 km/h 33.8 km/h 90.6% 1.02 mm 135 W/m2
14:54 15.4 °C 13.8 °C 1002.9 hPa SW 17.5 km/h 32.2 km/h 90% 1.02 mm 223 W/m2
14:59 15.4 °C 13.8 °C 1002.9 hPa SW 13.4 km/h 27.4 km/h 90% 0.76 mm 223 W/m2
15:04 15.3 °C 13.7 °C 1002.9 hPa SW 13.5 km/h 29 km/h 90.3% 0.76 mm 149 W/m2
15:09 15.3 °C 13.8 °C 1002.9 hPa SW 15 km/h 25.7 km/h 91% 0.51 mm 123 W/m2
15:14 15.3 °C 13.8 °C 1002.9 hPa SW 11.1 km/h 22.5 km/h 91% 0.25 mm 148 W/m2
15:19 15.4 °C 13.9 °C 1002.9 hPa SW 12.7 km/h 24.1 km/h 90.9% 0 mm 148 W/m2
15:24 15.5 °C 13.9 °C 1002.6 hPa SW 16.6 km/h 25.7 km/h 90.2% 0 mm 135 W/m2
15:29 15.5 °C 13.9 °C 1002.6 hPa SW 11.3 km/h 25.7 km/h 90% 0 mm 174 W/m2
15:34 15.5 °C 13.9 °C 1002.6 hPa SW 14.2 km/h 25.7 km/h 90% 0 mm 230 W/m2
15:39 15.6 °C 13.9 °C 1002.6 hPa SW 15.1 km/h 30.6 km/h 90% 0.25 mm 158 W/m2
15:44 15.7 °C 14 °C 1002.6 hPa SW 14.5 km/h 29 km/h 89.9% 0.25 mm 91 W/m2
15:49 15.7 °C 13.9 °C 1002.9 hPa SW 18.7 km/h 35.4 km/h 89% 0.25 mm 86 W/m2
15:54 15.5 °C 13.7 °C 1003.6 hPa West 18.8 km/h 35.4 km/h 89% 0.76 mm 35 W/m2
15:59 14.6 °C 12.9 °C 1003.6 hPa WNW 13.4 km/h 30.6 km/h 89.6% 1.27 mm 63 W/m2
16:04 14.2 °C 12.6 °C 1003.6 hPa WNW 17.4 km/h 32.2 km/h 90% 1.52 mm 100 W/m2
16:09 13.8 °C 12.4 °C 1003.6 hPa WNW 14 km/h 29 km/h 91% 1.52 mm 97 W/m2
16:14 13.7 °C 12.3 °C 1003.6 hPa West 13.5 km/h 27.4 km/h 91.3% 1.52 mm 49 W/m2
16:19 13.4 °C 12.2 °C 1003.9 hPa WNW 15.6 km/h 29 km/h 92% 1.52 mm 32 W/m2
16:24 13.3 °C 11.9 °C 1003.9 hPa WNW 11.3 km/h 25.7 km/h 92% 2.03 mm 23 W/m2
16:29 13.1 °C 11.8 °C 1003.9 hPa WNW 7.7 km/h 20.9 km/h 92% 2.29 mm 33 W/m2
16:34 13 °C 11.7 °C 1003.9 hPa West 8.4 km/h 17.7 km/h 92% 2.29 mm 51 W/m2
16:39 13 °C 11.8 °C 1004.3 hPa West 6.8 km/h 16.1 km/h 92.5% 2.29 mm 51 W/m2
16:44 13.1 °C 11.9 °C 1004.3 hPa WNW 6.6 km/h 16.1 km/h 93% 2.29 mm 47 W/m2
16:49 13 °C 11.9 °C 1003.9 hPa West 7.7 km/h 14.5 km/h 93% 2.29 mm 40 W/m2
16:54 13 °C 11.9 °C 1003.9 hPa WNW 7.7 km/h 12.9 km/h 93% 2.29 mm 39 W/m2
16:59 13 °C 11.9 °C 1003.9 hPa West 7.4 km/h 12.9 km/h 93% 1.52 mm 39 W/m2
17:04 13 °C 11.9 °C 1003.9 hPa West 6.9 km/h 12.9 km/h 93% 1.27 mm 26 W/m2
17:09 13 °C 11.9 °C 1003.9 hPa West 6.3 km/h 12.9 km/h 93% 1.27 mm 23 W/m2
17:14 13.1 °C 11.9 °C 1003.9 hPa West 4.3 km/h 11.3 km/h 93.2% 1.27 mm 21 W/m2
17:19 13.1 °C 12.1 °C 1003.9 hPa West 4.3 km/h 9.7 km/h 93.7% 1.27 mm 16 W/m2
17:24 13.1 °C 12.2 °C 1003.9 hPa West 7.4 km/h 14.5 km/h 94% 1.02 mm 16 W/m2
17:29 13.1 °C 12.2 °C 1004.3 hPa West 6.9 km/h 12.9 km/h 94% 0.51 mm 18 W/m2
17:34 13.1 °C 12.2 °C 1004.3 hPa West 9.2 km/h 19.3 km/h 94% 0.51 mm 16 W/m2
17:39 13 °C 12.1 °C 1004.3 hPa West 8.4 km/h 19.3 km/h 94% 0.51 mm 19 W/m2
17:44 13 °C 12.1 °C 1004.3 hPa West 6.3 km/h 14.5 km/h 94% 0.51 mm 16 W/m2
17:49 13 °C 12.1 °C 1004.6 hPa West 9.3 km/h 17.7 km/h 94% 0.51 mm 7 W/m2
17:54 13 °C 12.1 °C 1004.6 hPa WNW 9.8 km/h 17.7 km/h 94% 0.51 mm 7 W/m2
17:59 12.8 °C 11.9 °C 1004.6 hPa WNW 10.8 km/h 24.1 km/h 94% 0.51 mm 9 W/m2
18:04 12.6 °C 11.7 °C 1004.6 hPa WNW 9.5 km/h 16.1 km/h 94% 0.51 mm 9 W/m2
18:09 12.4 °C 11.6 °C 1004.6 hPa WNW 8 km/h 19.3 km/h 94% 0.76 mm 5 W/m2
18:14 12.4 °C 11.5 °C 1004.6 hPa WNW 6.6 km/h 19.3 km/h 94% 0.51 mm 0 W/m2
18:19 12.4 °C 11.5 °C 1004.6 hPa WNW 4.7 km/h 9.7 km/h 94% 0.51 mm 0 W/m2
18:24 12.4 °C 11.5 °C 1004.6 hPa WNW 3.2 km/h 8 km/h 94% 0.51 mm 0 W/m2
18:29 12.4 °C 11.5 °C 1004.6 hPa WNW 3.1 km/h 8 km/h 94% 0.51 mm 0 W/m2
18:34 12.3 °C 11.4 °C 1005 hPa WNW 2.1 km/h 6.4 km/h 94% 0.51 mm 0 W/m2
18:39 12.3 °C 11.4 °C 1005 hPa WNW 1.9 km/h 6.4 km/h 94% 0.51 mm 0 W/m2
18:44 12.3 °C 11.4 °C 1005 hPa WNW 1.3 km/h 6.4 km/h 94% 0.25 mm 0 W/m2
18:49 12.3 °C 11.4 °C 1005 hPa WNW 1.4 km/h 6.4 km/h 94% 0.25 mm 0 W/m2
18:54 12.3 °C 11.4 °C 1005 hPa WNW 0.2 km/h 4.8 km/h 94% 0.25 mm 0 W/m2
18:59 12.3 °C 11.4 °C 1005 hPa WNW 1.6 km/h 6.4 km/h 94% 0.25 mm 0 W/m2
19:04 12.2 °C 11.3 °C 1005 hPa WNW 1 km/h 6.4 km/h 94% 0.25 mm 0 W/m2
19:09 12.2 °C 11.3 °C 1004.6 hPa WNW 0.5 km/h 6.4 km/h 94% 0 mm 0 W/m2
19:14 12.2 °C 11.3 °C 1004.6 hPa WNW 1 km/h 6.4 km/h 94% 0 mm 0 W/m2
19:19 12.2 °C 11.3 °C 1004.6 hPa Calm   6.4 km/h 94% 0 mm 0 W/m2
19:24 12.2 °C 11.3 °C 1004.6 hPa Calm     94% 0 mm 0 W/m2
19:29 12.2 °C 11.3 °C 1004.6 hPa Calm     94% 0 mm 0 W/m2
19:34 12.3 °C 11.4 °C 1004.6 hPa Calm     94% 0 mm 0 W/m2
19:39 12.2 °C 11.3 °C 1004.6 hPa WNW 0.5 km/h 3.2 km/h 94% 0 mm 0 W/m2
19:44 12.2 °C 11.2 °C 1004.6 hPa WNW 0.3 km/h 1.6 km/h 94% 0 mm 0 W/m2
19:49 12.1 °C 11.2 °C 1004.6 hPa Calm     94% 0 mm 0 W/m2
19:54 12.1 °C 11.2 °C 1004.6 hPa Calm     94% 0 mm 0 W/m2
19:59 12.2 °C 11.2 °C 1004.6 hPa WNW 0.2 km/h 1.6 km/h 94% 0 mm 0 W/m2
20:04 12.2 °C 11.3 °C 1004.6 hPa Calm   1.6 km/h 94% 0 mm 0 W/m2
20:09 12.2 °C 11.3 °C 1005 hPa Calm     94% 0 mm 0 W/m2
20:14 12.2 °C 11.2 °C 1004.6 hPa Calm     94% 0 mm 0 W/m2
20:19 12.1 °C 11.2 °C 1004.6 hPa Calm   1.6 km/h 94% 0 mm 0 W/m2
20:24 12 °C 11.1 °C 1004.6 hPa Calm   1.6 km/h 94% 0 mm 0 W/m2
20:29 12 °C 11.1 °C 1004.6 hPa Calm     94% 0 mm 0 W/m2
20:34 11.9 °C 11 °C 1004.6 hPa WNW 0.8 km/h 3.2 km/h 94% 0 mm 0 W/m2
20:39 11.9 °C 11 °C 1004.6 hPa Calm   3.2 km/h 94% 0 mm 0 W/m2
20:44 11.8 °C 10.9 °C 1004.6 hPa WNW 0.2 km/h 3.2 km/h 94% 0 mm 0 W/m2
20:49 11.8 °C 10.9 °C 1004.6 hPa Calm     94% 0 mm 0 W/m2
20:54 11.8 °C 10.9 °C 1004.6 hPa WNW 0.3 km/h 1.6 km/h 94% 0 mm 0 W/m2
20:59 11.8 °C 10.9 °C 1005 hPa Calm   1.6 km/h 94% 0 mm 0 W/m2
21:04 11.8 °C 10.9 °C 1005 hPa WNW 0.6 km/h 4.8 km/h 94% 0 mm 0 W/m2
21:09 11.8 °C 10.9 °C 1005.3 hPa WNW 0.8 km/h 4.8 km/h 94% 0.25 mm 0 W/m2
21:14 11.8 °C 10.8 °C 1005.3 hPa WNW 2.7 km/h 6.4 km/h 94% 0.25 mm 0 W/m2
21:19 11.7 °C 10.8 °C 1005.3 hPa WNW 1 km/h 4.8 km/h 94% 0.25 mm 0 W/m2
21:24 11.7 °C 10.8 °C 1005.3 hPa WNW 3.1 km/h 6.4 km/h 94% 0.25 mm 0 W/m2
21:29 11.7 °C 10.8 °C 1005.3 hPa WNW 0.8 km/h 6.4 km/h 94% 0.25 mm 0 W/m2
21:34 11.7 °C 10.8 °C 1005.6 hPa WNW 0.3 km/h 3.2 km/h 94% 0.25 mm 0 W/m2
21:39 11.7 °C 10.8 °C 1005.6 hPa WNW 0.3 km/h 3.2 km/h 94% 0.25 mm 0 W/m2
21:44 11.7 °C 10.8 °C 1005.6 hPa WNW 0.8 km/h 4.8 km/h 94% 0.51 mm 0 W/m2
21:49 11.7 °C 10.8 °C 1005.6 hPa WNW 0.3 km/h 3.2 km/h 94% 0.51 mm 0 W/m2
21:54 11.7 °C 10.8 °C 1005.6 hPa WNW 1.9 km/h 8 km/h 94% 0.51 mm 0 W/m2
21:59 11.7 °C 10.8 °C 1005.6 hPa WNW 2.9 km/h 8 km/h 94% 0.51 mm 0 W/m2
22:04 11.7 °C 10.8 °C 1005.6 hPa WNW 0.5 km/h 4.8 km/h 94% 0.76 mm 0 W/m2
22:09 11.7 °C 10.8 °C 1005.6 hPa WNW 0.2 km/h 3.2 km/h 94% 0.76 mm 0 W/m2
22:14 11.7 °C 10.8 °C 1005.6 hPa WNW 0.3 km/h 3.2 km/h 94% 0.76 mm 0 W/m2
22:19 11.7 °C 10.8 °C 1005.6 hPa WNW 1 km/h 4.8 km/h 94% 0.76 mm 0 W/m2
22:24 11.7 °C 10.8 °C 1005.6 hPa WNW 1 km/h 4.8 km/h 94% 1.02 mm 0 W/m2
22:29 11.7 °C 10.8 °C 1006 hPa WNW 2.6 km/h 6.4 km/h 94% 1.02 mm 0 W/m2
22:34 11.6 °C 10.7 °C 1006 hPa West 4.3 km/h 9.7 km/h 94% 1.02 mm 0 W/m2
22:39 11.5 °C 10.6 °C 1005.6 hPa West 1 km/h 4.8 km/h 94% 1.02 mm 0 W/m2
22:44 11.4 °C 10.6 °C 1006 hPa West 2.9 km/h 6.4 km/h 94% 0.76 mm 0 W/m2
22:49 11.3 °C 10.4 °C 1006 hPa WSW 6.1 km/h 12.9 km/h 94% 1.02 mm 0 W/m2
22:54 11.2 °C 10.3 °C 1006 hPa SW 4.5 km/h 12.9 km/h 94% 1.02 mm 0 W/m2
22:59 11 °C 10.1 °C 1006 hPa West 5.5 km/h 11.3 km/h 94% 0.76 mm 0 W/m2
23:04 10.9 °C 10 °C 1006 hPa West 4.8 km/h 11.3 km/h 94% 0.51 mm 0 W/m2
23:09 10.8 °C 9.9 °C 1006 hPa West 4.7 km/h 9.7 km/h 94% 0.51 mm 0 W/m2
23:14 10.8 °C 9.9 °C 1006 hPa West 2.3 km/h 9.7 km/h 94% 0.51 mm 0 W/m2
23:19 10.7 °C 9.8 °C 1005.6 hPa West 2.1 km/h 9.7 km/h 94% 0.51 mm 0 W/m2
23:24 10.7 °C 9.8 °C 1005.6 hPa West 0.8 km/h 4.8 km/h 94% 0.51 mm 0 W/m2
23:29 10.7 °C 9.8 °C 1006 hPa West 0.5 km/h 4.8 km/h 94% 0.51 mm 0 W/m2
23:34 10.7 °C 9.8 °C 1006 hPa West 0.8 km/h 4.8 km/h 94% 0.51 mm 0 W/m2
23:39 10.7 °C 9.8 °C 1006 hPa West 1.8 km/h 6.4 km/h 94% 0.51 mm 0 W/m2
23:44 10.6 °C 9.7 °C 1006 hPa West 2.1 km/h 9.7 km/h 93.9% 0.51 mm 0 W/m2
23:49 10.5 °C 9.5 °C 1006 hPa West 1.1 km/h 4.8 km/h 93.5% 0.51 mm 0 W/m2
23:54 10.5 °C 9.4 °C 1006.3 hPa West 1 km/h 4.8 km/h 93% 0.51 mm 0 W/m2
23:59 10.5 °C 9.4 °C 1006.3 hPa West 0.8 km/h 8 km/h 93% 0.51 mm 0 W/m2
Bath Spa Weather
Compliments of Weather Underground - 2 mb